Shin Chun — VRFD2 — position and weather

sailwx.info

Track history (hours):
 
Tides and Currents Weather Stations Pressure Air Temp Water Temp Dewpoint Dewpoint Depression Visibility Wind Speed Wind Dir Waves Ship Positions

Shin Chun

Last reported at 2014-Aug-01 03:05 UTC. Time now 2014-Aug-01 05:47 UTC.
Position N 25°16' E 119°42'.

Length 152 m; draft 6.4 m.

Type: Cargo ship. MMSI: 477218300.

Date/timePositionNaut miles runAvg speedWind from/ knotsBaromVisibWave heightAir tempDewpointWater temp
2014-Aug-01 03:05N 25°16' E 119°42'712.6
2014-Aug-01 02:29N 25°18' E 119°34'1212.6
2014-Aug-01 01:33N 25°22' E 119°22'5 4.8
2014-Aug-01 00:33N 25°25' E 119°17'0 0.0
2014-Jul-31 23:29N 25°25' E 119°17'0 0.0
2014-Jul-31 22:32N 25°25' E 119°17'0 0.1
2014-Jul-31 21:32N 25°25' E 119°17'0 0.1
2014-Jul-31 20:32N 25°25' E 119°17'1 1.3
2014-Jul-31 19:33N 25°24' E 119°18'1212.5
2014-Jul-31 18:33N 25°19' E 119°31'2512.3
2014-Jul-31 16:30N 25°02' E 119°51'132 5.2
2014-Jul-30 15:21N 22°51' E 120°02'1012.9
2014-Jul-30 14:33N 22°43' E 120°08'1110.8
2014-Jul-30 13:33N 22°36' E 120°17'1 1.3
2014-Jul-30 12:30N 22°35' E 120°18'0 0.0
2014-Jul-30 11:30N 22°35' E 120°18'0 0.0
2014-Jul-30 10:30N 22°35' E 120°18'0 0.0
2014-Jul-30 09:24N 22°35' E 120°18'0 0.0
2014-Jul-30 08:24N 22°35' E 120°18'0 0.0
2014-Jul-30 07:30N 22°35' E 120°18'0 0.0
2014-Jul-30 06:30N 22°35' E 120°18'0 0.0
2014-Jul-30 05:30N 22°35' E 120°18'0 0.0
2014-Jul-30 04:30N 22°35' E 120°18'0 0.0
2014-Jul-30 03:30N 22°35' E 120°18'1 0.8
2014-Jul-30 02:33N 22°35' E 120°18'6 5.6
2014-Jul-30 01:33N 22°37' E 120°12'8 8.4
2014-Jul-30 00:33N 22°42' E 120°05'1212.5
2014-Jul-29 23:33N 22°49' E 119°53'1211.7
2014-Jul-29 22:30N 22°56' E 119°42'1212.0
2014-Jul-29 21:29N 23°02' E 119°31'5512.7
2014-Jul-29 17:08N 23°43' E 118°50'3910.8
2014-Jul-29 13:32N 24°11' E 118°20'1111.3
2014-Jul-29 12:33N 24°19' E 118°12'1211.6
2014-Jul-29 11:33N 24°27' E 118°03'5 4.3
2014-Jul-29 10:25N 24°31' E 118°05'0 0.0
2014-Jul-29 09:22N 24°31' E 118°05'0 0.0
2014-Jul-29 08:22N 24°31' E 118°05'0 0.0
2014-Jul-29 07:22N 24°31' E 118°05'0 0.0
2014-Jul-29 06:31N 24°31' E 118°05'0 0.0
2014-Jul-29 05:31N 24°31' E 118°05'0 0.0
2014-Jul-29 04:33N 24°31' E 118°05'0 0.0
2014-Jul-29 03:30N 24°31' E 118°05'0 0.0
2014-Jul-29 02:33N 24°31' E 118°05'0 0.0
2014-Jul-29 01:30N 24°31' E 118°05'0 0.0
2014-Jul-29 00:31N 24°31' E 118°05'0 0.0
2014-Jul-28 23:33N 24°31' E 118°05'0 0.0
2014-Jul-28 22:24N 24°31' E 118°05'0 0.0
2014-Jul-28 21:33N 24°31' E 118°05'0 0.0
2014-Jul-28 20:30N 24°31' E 118°05'0 0.0
2014-Jul-28 19:30N 24°31' E 118°05'0 0.0
2014-Jul-28 18:30N 24°31' E 118°05'0 0.0
2014-Jul-28 17:30N 24°31' E 118°05'0 0.0
2014-Jul-28 16:30N 24°31' E 118°05'0 0.4
2014-Jul-28 15:33N 24°31' E 118°05'9 9.4
2014-Jul-28 14:33N 24°22' E 118°08'2016.0
2014-Jul-28 13:17N 24°08' E 118°24'4416.0
2014-Jul-28 10:33N 23°37' E 118°58'1515.3
2014-Jul-28 09:32N 23°25' E 119°08'1914.6
2014-Jul-28 08:15N 23°11' E 119°22'1214.4
2014-Jul-28 07:23N 23°02' E 119°32'2613.8
2014-Jul-28 05:32N 22°48' E 119°55'1414.6
2014-Jul-28 04:33N 22°41' E 120°08'1110.9
2014-Jul-28 03:33N 22°35' E 120°18'0 0.1
2014-Jul-28 01:29N 22°35' E 120°18'0 0.0
2014-Jul-28 00:29N 22°35' E 120°18'0 0.0
2014-Jul-27 23:29N 22°35' E 120°18'0 0.0
2014-Jul-27 22:29N 22°35' E 120°18'0 0.0
2014-Jul-27 21:29N 22°35' E 120°18'0 0.0
2014-Jul-27 20:33N 22°35' E 120°18'5 4.7
2014-Jul-27 19:33N 22°37' E 120°14'1414.0
2014-Jul-27 18:33N 22°48' E 120°04'19814.0
2014-Jul-27 04:22N 26°05' E 119°46'1011.9
2014-Jul-27 03:33N 26°08' E 119°35'10 9.6
2014-Jul-27 02:33N 26°00' E 119°29'0 0.1
2014-Jul-27 01:30N 26°00' E 119°29'0 0.0
2014-Jul-27 00:30N 26°00' E 119°29'0 0.0
2014-Jul-26 23:30N 26°00' E 119°29'0 0.0
2014-Jul-26 22:30N 26°00' E 119°29'0 0.0
2014-Jul-26 21:30N 26°00' E 119°29'0 0.0
2014-Jul-26 20:30N 26°00' E 119°29'0 0.0
2014-Jul-26 19:30N 26°00' E 119°29'0 0.0
2014-Jul-26 18:30N 26°00' E 119°29'0 0.0
2014-Jul-26 17:30N 26°00' E 119°29'0 0.0
2014-Jul-26 16:24N 26°00' E 119°29'0 0.0
2014-Jul-26 15:30N 26°00' E 119°29'0 0.0
2014-Jul-26 14:24N 26°00' E 119°29'0 0.0
2014-Jul-26 13:30N 26°00' E 119°29'0 0.0
2014-Jul-26 12:30N 26°00' E 119°29'0 0.0
2014-Jul-26 11:30N 26°00' E 119°29'0 0.0
2014-Jul-26 10:30N 26°00' E 119°29'0 0.0
2014-Jul-26 09:24N 26°00' E 119°29'0 0.0
2014-Jul-26 08:30N 26°00' E 119°29'0 0.0
2014-Jul-26 07:18N 26°00' E 119°29'0 0.0
2014-Jul-26 06:30N 26°00' E 119°29'0 0.0
2014-Jul-26 05:30N 26°00' E 119°29'1 1.2
2014-Jul-26 04:33N 26°01' E 119°30'8 8.2
2014-Jul-26 03:33N 26°08' E 119°35'10 9.2
2014-Jul-26 02:25N 26°05' E 119°46'4 0.2
2014-Jul-25 07:19N 26°02' E 119°50'1212.0
2014-Jul-25 06:20N 25°52' E 119°57'4010.3
2014-Jul-25 02:29N 25°19' E 119°33'1213.0
2014-Jul-25 01:33N 25°23' E 119°21'3 3.3
2014-Jul-25 00:29N 25°25' E 119°18'0 0.0
2014-Jul-24 23:29N 25°25' E 119°18'0 0.0
2014-Jul-24 22:29N 25°25' E 119°18'0 0.0
2014-Jul-24 21:29N 25°25' E 119°18'0 0.0
2014-Jul-24 20:29N 25°25' E 119°18'0 0.0
2014-Jul-24 19:29N 25°25' E 119°18'0 0.0
2014-Jul-24 18:29N 25°25' E 119°18'0 0.0
2014-Jul-24 17:29N 25°25' E 119°18'0 0.0
2014-Jul-24 16:33N 25°25' E 119°18'9 9.0
2014-Jul-24 15:33N 25°20' E 119°26'1211.7
2014-Jul-24 14:33N 25°17' E 119°38'147 5.9
2014-Jul-23 13:33N 22°51' E 119°57'1111.2
2014-Jul-23 12:33N 22°41' E 120°03'1211.9
2014-Jul-23 11:33N 22°37' E 120°15'4 3.7
2014-Jul-23 10:29N 22°35' E 120°18'0 0.0
2014-Jul-23 09:29N 22°35' E 120°18'0 0.0
2014-Jul-23 08:29N 22°35' E 120°18'0 0.0
2014-Jul-23 07:28N 22°35' E 120°18'0 0.0
2014-Jul-23 06:28N 22°35' E 120°18'0 0.0
2014-Jul-23 05:31N 22°35' E 120°18'0 0.0
2014-Jul-23 04:31N 22°35' E 120°18'0 0.0
2014-Jul-23 03:22N 22°35' E 120°18'0 0.0
2014-Jul-23 02:31N 22°35' E 120°18'0 0.0
2014-Jul-23 01:31N 22°35' E 120°18'0 0.0
2014-Jul-23 00:19N 22°35' E 120°18'0 0.0
2014-Jul-22 23:13N 22°35' E 120°18'0 0.0
2014-Jul-22 22:28N 22°35' E 120°18'0 0.0
2014-Jul-22 20:19N 22°35' E 120°18'0 0.0
2014-Jul-22 19:28N 22°35' E 120°18'0 0.0
2014-Jul-22 18:22N 22°35' E 120°18'0 0.0
2014-Jul-22 17:28N 22°35' E 120°18'0 0.0
2014-Jul-22 16:28N 22°35' E 120°18'0 0.0
2014-Jul-22 15:28N 22°35' E 120°18'0 0.0
2014-Jul-22 14:33N 22°35' E 120°18'3 2.9
2014-Jul-22 13:33N 22°37' E 120°16'1111.3
2014-Jul-22 12:33N 22°42' E 120°05'1515.4
2014-Jul-22 11:33N 22°50' E 119°51'1515.0
2014-Jul-22 10:33N 22°59' E 119°38'10113.9
2014-Jul-22 03:20N 24°10' E 118°20'  
Track history (hours):
 
Tides and Currents Weather Stations Pressure Air Temp Water Temp Dewpoint Dewpoint Depression Visibility Wind Speed Wind Dir Waves Ship Positions

Shin Chun

Last reported at 2014-Aug-01 03:05 UTC. Time now 2014-Aug-01 05:47 UTC.
Position N 25°16' E 119°42'.

Length 152 m; draft 6.4 m.

Type: Cargo ship. MMSI: 477218300.

Date/timePositionNaut miles runAvg speedWind from/ knotsBaromVisibWave heightAir tempDewpointWater temp
2014-Aug-01 03:05N 25°16' E 119°42'712.6
2014-Aug-01 02:29N 25°18' E 119°34'1212.6
2014-Aug-01 01:33N 25°22' E 119°22'5 4.8
2014-Aug-01 00:33N 25°25' E 119°17'0 0.0
2014-Jul-31 23:29N 25°25' E 119°17'0 0.0
2014-Jul-31 22:32N 25°25' E 119°17'0 0.1
2014-Jul-31 21:32N 25°25' E 119°17'0 0.1
2014-Jul-31 20:32N 25°25' E 119°17'1 1.3
2014-Jul-31 19:33N 25°24' E 119°18'1212.5
2014-Jul-31 18:33N 25°19' E 119°31'2512.3
2014-Jul-31 16:30N 25°02' E 119°51'132 5.2
2014-Jul-30 15:21N 22°51' E 120°02'1012.9
2014-Jul-30 14:33N 22°43' E 120°08'1110.8
2014-Jul-30 13:33N 22°36' E 120°17'1 1.3
2014-Jul-30 12:30N 22°35' E 120°18'0 0.0
2014-Jul-30 11:30N 22°35' E 120°18'0 0.0
2014-Jul-30 10:30N 22°35' E 120°18'0 0.0
2014-Jul-30 09:24N 22°35' E 120°18'0 0.0
2014-Jul-30 08:24N 22°35' E 120°18'0 0.0
2014-Jul-30 07:30N 22°35' E 120°18'0 0.0
2014-Jul-30 06:30N 22°35' E 120°18'0 0.0
2014-Jul-30 05:30N 22°35' E 120°18'0 0.0
2014-Jul-30 04:30N 22°35' E 120°18'0 0.0
2014-Jul-30 03:30N 22°35' E 120°18'1 0.8
2014-Jul-30 02:33N 22°35' E 120°18'6 5.6
2014-Jul-30 01:33N 22°37' E 120°12'8 8.4
2014-Jul-30 00:33N 22°42' E 120°05'1212.5
2014-Jul-29 23:33N 22°49' E 119°53'1211.7
2014-Jul-29 22:30N 22°56' E 119°42'1212.0
2014-Jul-29 21:29N 23°02' E 119°31'5512.7
2014-Jul-29 17:08N 23°43' E 118°50'3910.8
2014-Jul-29 13:32N 24°11' E 118°20'1111.3
2014-Jul-29 12:33N 24°19' E 118°12'1211.6
2014-Jul-29 11:33N 24°27' E 118°03'5 4.3
2014-Jul-29 10:25N 24°31' E 118°05'0 0.0
2014-Jul-29 09:22N 24°31' E 118°05'0 0.0
2014-Jul-29 08:22N 24°31' E 118°05'0 0.0
2014-Jul-29 07:22N 24°31' E 118°05'0 0.0
2014-Jul-29 06:31N 24°31' E 118°05'0 0.0
2014-Jul-29 05:31N 24°31' E 118°05'0 0.0
2014-Jul-29 04:33N 24°31' E 118°05'0 0.0
2014-Jul-29 03:30N 24°31' E 118°05'0 0.0
2014-Jul-29 02:33N 24°31' E 118°05'0 0.0
2014-Jul-29 01:30N 24°31' E 118°05'0 0.0
2014-Jul-29 00:31N 24°31' E 118°05'0 0.0
2014-Jul-28 23:33N 24°31' E 118°05'0 0.0
2014-Jul-28 22:24N 24°31' E 118°05'0 0.0
2014-Jul-28 21:33N 24°31' E 118°05'0 0.0
2014-Jul-28 20:30N 24°31' E 118°05'0 0.0
2014-Jul-28 19:30N 24°31' E 118°05'0 0.0
2014-Jul-28 18:30N 24°31' E 118°05'0 0.0
2014-Jul-28 17:30N 24°31' E 118°05'0 0.0
2014-Jul-28 16:30N 24°31' E 118°05'0 0.4
2014-Jul-28 15:33N 24°31' E 118°05'9 9.4
2014-Jul-28 14:33N 24°22' E 118°08'2016.0
2014-Jul-28 13:17N 24°08' E 118°24'4416.0
2014-Jul-28 10:33N 23°37' E 118°58'1515.3
2014-Jul-28 09:32N 23°25' E 119°08'1914.6
2014-Jul-28 08:15N 23°11' E 119°22'1214.4
2014-Jul-28 07:23N 23°02' E 119°32'2613.8
2014-Jul-28 05:32N 22°48' E 119°55'1414.6
2014-Jul-28 04:33N 22°41' E 120°08'1110.9
2014-Jul-28 03:33N 22°35' E 120°18'0 0.1
2014-Jul-28 01:29N 22°35' E 120°18'0 0.0
2014-Jul-28 00:29N 22°35' E 120°18'0 0.0
2014-Jul-27 23:29N 22°35' E 120°18'0 0.0
2014-Jul-27 22:29N 22°35' E 120°18'0 0.0
2014-Jul-27 21:29N 22°35' E 120°18'0 0.0
2014-Jul-27 20:33N 22°35' E 120°18'5 4.7
2014-Jul-27 19:33N 22°37' E 120°14'1414.0
2014-Jul-27 18:33N 22°48' E 120°04'19814.0
2014-Jul-27 04:22N 26°05' E 119°46'1011.9
2014-Jul-27 03:33N 26°08' E 119°35'10 9.6
2014-Jul-27 02:33N 26°00' E 119°29'0 0.1
2014-Jul-27 01:30N 26°00' E 119°29'0 0.0
2014-Jul-27 00:30N 26°00' E 119°29'0 0.0
2014-Jul-26 23:30N 26°00' E 119°29'0 0.0
2014-Jul-26 22:30N 26°00' E 119°29'0 0.0
2014-Jul-26 21:30N 26°00' E 119°29'0 0.0
2014-Jul-26 20:30N 26°00' E 119°29'0 0.0
2014-Jul-26 19:30N 26°00' E 119°29'0 0.0
2014-Jul-26 18:30N 26°00' E 119°29'0 0.0
2014-Jul-26 17:30N 26°00' E 119°29'0 0.0
2014-Jul-26 16:24N 26°00' E 119°29'0 0.0
2014-Jul-26 15:30N 26°00' E 119°29'0 0.0
2014-Jul-26 14:24N 26°00' E 119°29'0 0.0
2014-Jul-26 13:30N 26°00' E 119°29'0 0.0
2014-Jul-26 12:30N 26°00' E 119°29'0 0.0
2014-Jul-26 11:30N 26°00' E 119°29'0 0.0
2014-Jul-26 10:30N 26°00' E 119°29'0 0.0
2014-Jul-26 09:24N 26°00' E 119°29'0 0.0
2014-Jul-26 08:30N 26°00' E 119°29'0 0.0
2014-Jul-26 07:18N 26°00' E 119°29'0 0.0
2014-Jul-26 06:30N 26°00' E 119°29'0 0.0
2014-Jul-26 05:30N 26°00' E 119°29'1 1.2
2014-Jul-26 04:33N 26°01' E 119°30'8 8.2
2014-Jul-26 03:33N 26°08' E 119°35'10 9.2
2014-Jul-26 02:25N 26°05' E 119°46'4 0.2
2014-Jul-25 07:19N 26°02' E 119°50'1212.0
2014-Jul-25 06:20N 25°52' E 119°57'4010.3
2014-Jul-25 02:29N 25°19' E 119°33'1213.0
2014-Jul-25 01:33N 25°23' E 119°21'3 3.3
2014-Jul-25 00:29N 25°25' E 119°18'0 0.0
2014-Jul-24 23:29N 25°25' E 119°18'0 0.0
2014-Jul-24 22:29N 25°25' E 119°18'0 0.0
2014-Jul-24 21:29N 25°25' E 119°18'0 0.0
2014-Jul-24 20:29N 25°25' E 119°18'0 0.0
2014-Jul-24 19:29N 25°25' E 119°18'0 0.0
2014-Jul-24 18:29N 25°25' E 119°18'0 0.0
2014-Jul-24 17:29N 25°25' E 119°18'0 0.0
2014-Jul-24 16:33N 25°25' E 119°18'9 9.0
2014-Jul-24 15:33N 25°20' E 119°26'1211.7
2014-Jul-24 14:33N 25°17' E 119°38'147 5.9
2014-Jul-23 13:33N 22°51' E 119°57'1111.2
2014-Jul-23 12:33N 22°41' E 120°03'1211.9
2014-Jul-23 11:33N 22°37' E 120°15'4 3.7
2014-Jul-23 10:29N 22°35' E 120°18'0 0.0
2014-Jul-23 09:29N 22°35' E 120°18'0 0.0
2014-Jul-23 08:29N 22°35' E 120°18'0 0.0
2014-Jul-23 07:28N 22°35' E 120°18'0 0.0
2014-Jul-23 06:28N 22°35' E 120°18'0 0.0
2014-Jul-23 05:31N 22°35' E 120°18'0 0.0
2014-Jul-23 04:31N 22°35' E 120°18'0 0.0
2014-Jul-23 03:22N 22°35' E 120°18'0 0.0
2014-Jul-23 02:31N 22°35' E 120°18'0 0.0
2014-Jul-23 01:31N 22°35' E 120°18'0 0.0
2014-Jul-23 00:19N 22°35' E 120°18'0 0.0
2014-Jul-22 23:13N 22°35' E 120°18'0 0.0
2014-Jul-22 22:28N 22°35' E 120°18'0 0.0
2014-Jul-22 20:19N 22°35' E 120°18'0 0.0
2014-Jul-22 19:28N 22°35' E 120°18'0 0.0
2014-Jul-22 18:22N 22°35' E 120°18'0 0.0
2014-Jul-22 17:28N 22°35' E 120°18'0 0.0
2014-Jul-22 16:28N 22°35' E 120°18'0 0.0
2014-Jul-22 15:28N 22°35' E 120°18'0 0.0
2014-Jul-22 14:33N 22°35' E 120°18'3 2.9
2014-Jul-22 13:33N 22°37' E 120°16'1111.3
2014-Jul-22 12:33N 22°42' E 120°05'1515.4
2014-Jul-22 11:33N 22°50' E 119°51'1515.0
2014-Jul-22 10:33N 22°59' E 119°38'10113.9
2014-Jul-22 03:20N 24°10' E 118°20'  

Dump ship's entire track history